createdAt,value
2019-03-23T00:00:38.016Z,28.83
2019-03-23T00:03:07.827Z,28.10
2019-03-23T00:05:37.670Z,27.43
2019-03-23T00:08:07.558Z,35.48
2019-03-23T00:10:37.408Z,30.27
2019-03-23T00:13:07.262Z,28.90
2019-03-23T00:15:37.043Z,29.50
2019-03-23T00:18:07.032Z,29.67
2019-03-23T00:20:36.835Z,27.07
2019-03-23T00:23:06.550Z,29.30
2019-03-23T00:25:36.366Z,30.53
2019-03-23T00:28:06.203Z,28.70
2019-03-23T00:30:36.016Z,29.57
2019-03-23T00:33:05.818Z,27.30
2019-03-23T00:35:35.602Z,29.50
2019-03-23T00:38:05.397Z,28.73
2019-03-23T00:40:35.222Z,29.80
2019-03-23T00:43:05.033Z,28.77
2019-03-23T00:45:34.817Z,27.87
2019-03-23T00:48:04.750Z,28.77
2019-03-23T00:50:34.561Z,27.47
2019-03-23T00:53:04.491Z,29.20
2019-03-23T00:55:34.321Z,26.87
2019-03-23T00:58:04.082Z,28.13
2019-03-23T01:00:33.925Z,28.63
2019-03-23T01:03:03.719Z,29.33
2019-03-23T01:05:33.498Z,28.43
2019-03-23T01:08:03.342Z,28.33
2019-03-23T01:10:33.247Z,29.33
2019-03-23T01:13:02.970Z,29.87
2019-03-23T01:15:32.778Z,27.07
2019-03-23T01:18:02.622Z,26.73
2019-03-23T01:20:32.488Z,29.33
2019-03-23T01:23:02.211Z,30.77
2019-03-23T01:25:32.035Z,28.13
2019-03-23T01:28:01.828Z,28.20
2019-03-23T01:30:31.638Z,27.07
2019-03-23T01:33:01.449Z,26.77
2019-03-23T01:35:31.320Z,29.50
2019-03-23T01:38:01.114Z,28.13
2019-03-23T01:40:30.933Z,28.57
2019-03-23T01:43:00.715Z,27.60
2019-03-23T01:45:30.449Z,25.83
2019-03-23T01:48:00.417Z,27.03
2019-03-23T01:50:30.222Z,27.47
2019-03-23T01:52:59.930Z,29.30
2019-03-23T01:55:30.030Z,27.70
2019-03-23T01:57:59.917Z,28.17
2019-03-23T02:00:29.917Z,28.17
2019-03-23T02:03:00.166Z,25.83
2019-03-23T02:05:29.951Z,27.93
2019-03-23T02:07:59.731Z,28.37
2019-03-23T02:10:29.706Z,26.63
2019-03-23T02:12:59.502Z,27.73
2019-03-23T02:15:29.325Z,27.17
2019-03-23T02:17:59.167Z,28.63
2019-03-23T02:20:28.968Z,26.80
2019-03-23T02:23:01.044Z,28.67
2019-03-23T02:25:30.867Z,26.47
2019-03-23T02:28:00.689Z,30.10
2019-03-23T02:30:30.411Z,27.83
2019-03-23T02:33:00.256Z,29.77
2019-03-23T02:35:42.611Z,28.87
2019-03-23T02:38:12.454Z,28.47
2019-03-23T02:40:42.273Z,28.10
2019-03-23T02:43:12.286Z,28.20
2019-03-23T02:45:42.154Z,27.93
2019-03-23T02:48:11.975Z,28.20
2019-03-23T02:50:42.064Z,28.37
2019-03-23T02:53:11.962Z,28.03
2019-03-23T02:55:41.742Z,29.37
2019-03-23T02:58:11.483Z,27.30
2019-03-23T03:00:41.366Z,28.13
2019-03-23T03:03:11.145Z,27.10
2019-03-23T03:05:40.835Z,27.23
2019-03-23T03:08:10.715Z,28.00
2019-03-23T03:10:41.015Z,28.80
2019-03-23T03:13:11.354Z,28.17
2019-03-23T03:15:41.443Z,29.27
2019-03-23T03:18:11.211Z,29.13
2019-03-23T03:20:41.043Z,27.37
2019-03-23T03:23:10.903Z,27.17
2019-03-23T03:25:40.703Z,29.20
2019-03-23T03:28:10.599Z,28.73
2019-03-23T03:30:40.441Z,30.20
2019-03-23T03:33:10.200Z,30.07
2019-03-23T03:35:40.024Z,28.70
2019-03-23T03:38:09.861Z,29.70
2019-03-23T03:40:40.298Z,29.57
2019-03-23T03:43:10.178Z,30.07
2019-03-23T03:45:40.074Z,27.83
2019-03-23T03:48:09.971Z,29.23
2019-03-23T03:50:39.867Z,30.20
2019-03-23T03:53:09.702Z,28.00
2019-03-23T03:55:39.495Z,30.57
2019-03-23T03:58:09.325Z,30.57
2019-03-23T04:00:39.171Z,28.27
2019-03-23T04:03:09.010Z,29.27
2019-03-23T04:05:38.894Z,28.93
2019-03-23T04:08:11.781Z,28.03
2019-03-23T04:10:40.236Z,28.23
2019-03-23T04:13:10.053Z,28.10
2019-03-23T04:15:39.921Z,29.00
2019-03-23T04:18:09.836Z,29.77
2019-03-23T04:20:39.649Z,29.77
2019-03-23T04:23:09.449Z,30.00
2019-03-23T04:25:39.265Z,29.60
2019-03-23T04:28:09.090Z,29.23
2019-03-23T04:30:40.623Z,29.20
2019-03-23T04:33:10.478Z,28.63
2019-03-23T04:35:40.361Z,28.50
2019-03-23T04:38:21.978Z,28.10
2019-03-23T04:40:41.813Z,28.53
2019-03-23T04:43:11.643Z,27.17
2019-03-23T04:45:41.449Z,29.30
2019-03-23T04:48:11.191Z,29.43
2019-03-23T04:50:40.966Z,28.43
2019-03-23T04:53:10.926Z,28.73
2019-03-23T04:55:40.730Z,28.93
2019-03-23T04:58:10.542Z,27.47
2019-03-23T05:00:40.314Z,28.47
2019-03-23T05:03:10.202Z,29.30
2019-03-23T05:05:40.058Z,28.60
2019-03-23T05:08:10.098Z,27.27
2019-03-23T05:10:39.905Z,27.63
2019-03-23T05:13:09.693Z,27.20
2019-03-23T05:15:39.501Z,26.90
2019-03-23T05:18:09.408Z,26.43
2019-03-23T05:20:39.190Z,28.07
2019-03-23T05:23:09.046Z,27.53
2019-03-23T05:25:38.850Z,27.37
2019-03-23T05:28:08.634Z,27.17
2019-03-23T05:30:38.438Z,28.73
2019-03-23T05:33:08.286Z,27.30
2019-03-23T05:35:38.138Z,28.17
2019-03-23T05:38:08.013Z,27.57
2019-03-23T05:40:37.819Z,25.40
2019-03-23T05:43:07.632Z,28.27
2019-03-23T05:45:37.410Z,28.53
2019-03-23T05:48:07.222Z,26.67
2019-03-23T05:50:36.993Z,27.13
2019-03-23T05:53:06.814Z,26.87
2019-03-23T05:55:36.619Z,26.93
2019-03-23T05:58:06.386Z,28.57
2019-03-23T06:00:36.164Z,27.40
2019-03-23T06:03:06.114Z,27.00
2019-03-23T06:05:35.969Z,28.67
2019-03-23T06:08:05.850Z,27.93
2019-03-23T06:10:35.671Z,27.33
2019-03-23T06:13:05.451Z,27.07
2019-03-23T06:15:35.181Z,25.73
2019-03-23T06:18:05.247Z,27.73
2019-03-23T06:20:35.039Z,27.43
2019-03-23T06:23:04.823Z,27.00
2019-03-23T06:25:34.743Z,25.07
2019-03-23T06:28:04.838Z,26.20
2019-03-23T06:30:34.666Z,26.93
2019-03-23T06:33:04.667Z,25.93
2019-03-23T06:35:34.482Z,25.87
2019-03-23T06:38:04.256Z,25.60
2019-03-23T06:40:34.124Z,26.40
2019-03-23T06:43:03.910Z,26.57
2019-03-23T06:45:33.770Z,25.40
2019-03-23T06:48:03.596Z,26.47
2019-03-23T06:50:33.615Z,24.53
2019-03-23T06:53:03.475Z,25.43
2019-03-23T06:55:33.545Z,25.87
2019-03-23T06:58:03.323Z,25.80
2019-03-23T07:00:33.129Z,23.30
2019-03-23T07:03:02.957Z,25.83
2019-03-23T07:05:32.803Z,24.37
2019-03-23T07:08:02.632Z,25.20
2019-03-23T07:10:32.516Z,25.03
2019-03-23T07:13:02.302Z,23.60
2019-03-23T07:15:32.182Z,24.30
2019-03-23T07:18:01.916Z,21.73
2019-03-23T07:20:31.694Z,23.07
2019-03-23T07:23:01.504Z,23.30
2019-03-23T07:25:31.288Z,22.90
2019-03-23T07:28:01.194Z,22.40
2019-03-23T07:30:31.311Z,22.83
2019-03-23T07:33:01.090Z,23.50
2019-03-23T07:35:30.941Z,21.27
2019-03-23T07:38:00.817Z,22.00
2019-03-23T07:40:30.753Z,21.33
2019-03-23T07:43:00.862Z,20.63
2019-03-23T07:45:30.702Z,22.33
2019-03-23T07:48:00.693Z,20.70
2019-03-23T07:50:30.573Z,21.33
2019-03-23T07:53:00.387Z,21.10
2019-03-23T07:55:30.212Z,21.10
2019-03-23T07:58:00.012Z,20.33
2019-03-23T08:00:29.805Z,19.60
2019-03-23T08:02:59.578Z,20.27
2019-03-23T08:05:29.385Z,18.80
2019-03-23T08:07:59.199Z,19.87
2019-03-23T08:10:31.109Z,14.27
2019-03-23T08:13:01.294Z,18.07
2019-03-23T08:15:31.117Z,19.53
2019-03-23T08:18:00.923Z,19.10
2019-03-23T08:20:30.723Z,18.63
2019-03-23T08:23:00.539Z,17.90
2019-03-23T08:25:30.383Z,17.10
2019-03-23T08:28:00.268Z,16.23
2019-03-23T08:30:30.870Z,16.87
2019-03-23T08:33:01.665Z,15.53
2019-03-23T08:35:32.070Z,15.73
2019-03-23T08:38:01.896Z,15.60
2019-03-23T08:40:31.747Z,15.43
2019-03-23T08:43:01.535Z,14.07
2019-03-23T08:45:31.347Z,14.60
2019-03-23T08:48:01.423Z,13.63
2019-03-23T08:50:31.590Z,14.07
2019-03-23T08:53:01.562Z,11.47
2019-03-23T08:55:32.232Z,12.47
2019-03-23T08:58:02.528Z,12.40
2019-03-23T09:00:32.685Z,12.33
2019-03-23T09:03:03.803Z,11.63
2019-03-23T09:05:34.043Z,10.97
2019-03-23T09:08:04.317Z,12.33
2019-03-23T09:10:34.214Z,11.00
2019-03-23T09:13:04.040Z,11.23
2019-03-23T09:15:33.925Z,10.13
2019-03-23T09:18:03.718Z,9.33
2019-03-23T09:20:33.572Z,9.73
2019-03-23T09:23:03.381Z,8.07
2019-03-23T09:25:33.202Z,8.47
2019-03-23T09:28:03.222Z,8.20
2019-03-23T09:30:51.906Z,7.13
2019-03-23T09:33:21.936Z,7.47
2019-03-23T09:35:51.798Z,6.60
2019-03-23T09:38:21.623Z,5.93
2019-03-23T09:40:51.529Z,5.60
2019-03-23T09:43:21.379Z,5.77
2019-03-23T09:45:51.305Z,4.87
2019-03-23T09:48:21.102Z,5.63
2019-03-23T09:50:50.886Z,5.23
2019-03-23T09:53:20.873Z,4.03
2019-03-23T09:55:51.163Z,4.23
2019-03-23T09:58:21.142Z,4.47
2019-03-23T10:00:51.434Z,4.47
2019-03-23T10:03:21.450Z,3.10
2019-03-23T10:06:09.955Z,3.37
2019-03-23T10:08:39.886Z,3.33
2019-03-23T10:11:09.787Z,2.77
2019-03-23T10:13:39.779Z,3.20
2019-03-23T10:16:09.931Z,2.67
2019-03-23T10:18:40.290Z,2.50
2019-03-23T10:21:10.121Z,3.37
2019-03-23T10:23:58.827Z,2.93
2019-03-23T10:26:29.084Z,2.30
2019-03-23T10:28:58.986Z,3.17
2019-03-23T10:31:29.143Z,2.10
2019-03-23T10:33:59.213Z,2.67
2019-03-23T10:36:29.510Z,2.80
2019-03-23T10:38:59.690Z,2.80
2019-03-23T10:41:29.902Z,2.00
2019-03-23T10:44:00.543Z,2.50
2019-03-23T10:46:30.337Z,2.07
2019-03-23T10:49:00.964Z,1.90
2019-03-23T10:51:31.234Z,2.60
2019-03-23T10:54:01.020Z,2.50
2019-03-23T10:56:30.981Z,2.23
2019-03-23T10:59:00.886Z,1.87
2019-03-23T11:01:30.698Z,2.37
2019-03-23T11:04:00.482Z,1.83
2019-03-23T11:06:30.461Z,2.90
2019-03-23T11:09:00.252Z,3.03
2019-03-23T11:11:30.051Z,1.93
2019-03-23T11:13:59.920Z,2.10
2019-03-23T11:16:29.876Z,2.33
2019-03-23T11:18:59.663Z,2.50
2019-03-23T11:21:29.482Z,3.00
2019-03-23T11:23:59.281Z,1.83
2019-03-23T11:26:29.414Z,2.13
2019-03-23T11:28:59.243Z,2.10
2019-03-23T11:31:30.972Z,1.80
2019-03-23T11:34:00.506Z,2.47
2019-03-23T11:36:30.292Z,1.90
2019-03-23T11:39:00.095Z,1.83
2019-03-23T11:41:30.084Z,2.40
2019-03-23T11:43:59.881Z,1.80
2019-03-23T11:46:29.819Z,1.80
2019-03-23T11:48:59.926Z,1.93
2019-03-23T11:51:29.765Z,2.07
2019-03-23T11:53:59.705Z,2.37
2019-03-23T11:56:30.554Z,2.53
2019-03-23T11:59:00.686Z,2.13
2019-03-23T12:01:30.791Z,2.20
2019-03-23T12:04:00.606Z,1.87
2019-03-23T12:06:30.520Z,2.00
2019-03-23T12:09:00.301Z,1.93
2019-03-23T12:11:30.141Z,1.90
2019-03-23T12:14:00.161Z,1.73
2019-03-23T12:16:30.015Z,2.50
2019-03-23T12:19:00.309Z,1.70
2019-03-23T12:21:30.429Z,2.30
2019-03-23T12:24:00.254Z,1.93
2019-03-23T12:26:30.074Z,2.30
2019-03-23T12:28:59.906Z,2.13
2019-03-23T12:31:29.965Z,2.67
2019-03-23T12:33:59.994Z,2.33
2019-03-23T12:36:29.897Z,2.10
2019-03-23T12:38:59.710Z,2.40
2019-03-23T12:41:29.609Z,2.43
2019-03-23T12:43:59.399Z,1.90
2019-03-23T12:46:29.254Z,1.70
2019-03-23T12:48:59.314Z,2.30
2019-03-23T12:51:29.162Z,2.30
2019-03-23T12:53:59.123Z,2.00
2019-03-23T12:56:28.922Z,2.33
2019-03-23T12:58:58.972Z,2.07
2019-03-23T13:01:28.778Z,2.73
2019-03-23T13:03:58.597Z,2.60
2019-03-23T13:06:28.425Z,2.00
2019-03-23T13:08:58.311Z,2.43
2019-03-23T13:11:34.885Z,1.63
2019-03-23T13:13:59.742Z,2.13
2019-03-23T13:16:29.938Z,2.60
2019-03-23T13:18:59.846Z,2.00
2019-03-23T13:21:29.650Z,1.53
2019-03-23T13:23:59.542Z,2.17
2019-03-23T13:26:29.493Z,2.30
2019-03-23T13:29:01.166Z,2.27
2019-03-23T13:31:31.240Z,2.53
2019-03-23T13:34:01.409Z,2.43
2019-03-23T13:36:31.332Z,2.17
2019-03-23T13:39:01.233Z,2.30
2019-03-23T13:41:31.047Z,2.10
2019-03-23T13:44:00.858Z,2.33
2019-03-23T13:46:30.876Z,2.30
2019-03-23T13:49:00.835Z,2.33
2019-03-23T13:51:30.674Z,2.37
2019-03-23T13:54:00.546Z,2.07
2019-03-23T13:56:30.342Z,2.20
2019-03-23T13:59:00.139Z,2.67
2019-03-23T14:01:29.979Z,2.00
2019-03-23T14:03:59.941Z,2.87
2019-03-23T14:06:29.914Z,2.10
2019-03-23T14:08:59.724Z,2.70
2019-03-23T14:11:29.651Z,2.60
2019-03-23T14:13:59.862Z,2.63
2019-03-23T14:16:29.931Z,2.63
2019-03-23T14:19:01.227Z,2.30
2019-03-23T14:21:31.367Z,2.67
2019-03-23T14:24:01.578Z,2.50
2019-03-23T14:26:31.798Z,2.10
2019-03-23T14:29:01.973Z,2.40
2019-03-23T14:31:32.143Z,2.20
2019-03-23T14:34:02.254Z,2.10
2019-03-23T14:36:32.813Z,2.77
2019-03-23T14:39:04.239Z,2.20
2019-03-23T14:41:34.015Z,1.70
2019-03-23T14:44:03.786Z,2.50
2019-03-23T14:46:33.626Z,2.07
2019-03-23T14:49:03.489Z,2.73
2019-03-23T14:51:33.297Z,3.03
2019-03-23T14:54:03.244Z,1.80
2019-03-23T14:56:33.174Z,2.70
2019-03-23T14:59:03.199Z,1.97
2019-03-23T15:01:33.192Z,2.37
2019-03-23T15:04:03.043Z,2.53
2019-03-23T15:06:32.908Z,1.97
2019-03-23T15:09:03.425Z,3.13
2019-03-23T15:11:33.546Z,2.60
2019-03-23T15:14:08.044Z,3.00
2019-03-23T15:16:38.005Z,3.07
2019-03-23T15:19:08.206Z,2.80
2019-03-23T15:21:38.098Z,2.33
2019-03-23T15:24:07.926Z,2.80
2019-03-23T15:26:37.754Z,2.03
2019-03-23T15:29:07.666Z,2.23
2019-03-23T15:31:37.695Z,2.17
2019-03-23T15:34:07.736Z,2.33
2019-03-23T15:36:37.509Z,2.70
2019-03-23T15:39:08.719Z,2.77
2019-03-23T15:41:38.601Z,3.13
2019-03-23T15:44:08.623Z,2.93
2019-03-23T15:46:39.075Z,2.63
2019-03-23T15:49:09.393Z,2.77
2019-03-23T15:51:39.554Z,2.33
2019-03-23T15:54:11.933Z,2.30
2019-03-23T15:56:42.429Z,2.50
2019-03-23T15:59:13.177Z,2.10
2019-03-23T16:01:43.662Z,2.97
2019-03-23T16:04:13.647Z,3.43
2019-03-23T16:06:44.007Z,2.83
2019-03-23T16:09:14.645Z,1.73
2019-03-23T16:11:44.809Z,3.43
2019-03-23T16:14:21.011Z,2.13
2019-03-23T16:16:51.654Z,2.60
2019-03-23T16:19:22.007Z,2.83
2019-03-23T16:21:52.201Z,2.70
2019-03-23T16:24:22.406Z,2.57
2019-03-23T16:26:53.048Z,2.20
2019-03-23T16:29:23.429Z,3.13
2019-03-23T16:31:53.927Z,2.63
2019-03-23T16:34:24.029Z,2.70
2019-03-23T16:36:54.302Z,2.80
2019-03-23T16:39:24.560Z,2.70
2019-03-23T16:41:54.636Z,3.80
2019-03-23T16:44:24.691Z,4.17
2019-03-23T16:46:55.221Z,2.63
2019-03-23T16:49:27.925Z,3.00
2019-03-23T16:51:58.051Z,2.70
2019-03-23T16:54:28.226Z,3.17
2019-03-23T16:56:58.190Z,3.10
2019-03-23T16:59:28.242Z,3.00
2019-03-23T17:02:17.185Z,2.67
2019-03-23T17:04:47.068Z,2.80
2019-03-23T17:07:16.864Z,2.60
2019-03-23T17:09:46.716Z,3.20
2019-03-23T17:12:16.547Z,2.93
2019-03-23T17:14:46.487Z,3.67
2019-03-23T17:17:16.330Z,2.87
2019-03-23T17:19:46.177Z,3.30
2019-03-23T17:22:15.978Z,2.67
2019-03-23T17:24:45.762Z,2.43
2019-03-23T17:27:15.680Z,2.70
2019-03-23T17:29:45.487Z,3.87
2019-03-23T17:32:15.283Z,3.37
2019-03-23T17:34:45.051Z,2.80
2019-03-23T17:37:14.856Z,2.97
2019-03-23T17:39:44.648Z,2.83
2019-03-23T17:42:14.598Z,3.20
2019-03-23T17:44:46.160Z,3.20
2019-03-23T17:47:15.894Z,2.70
2019-03-23T17:49:45.772Z,2.50
2019-03-23T17:52:15.678Z,3.10
2019-03-23T17:54:45.602Z,2.90
2019-03-23T17:57:16.016Z,2.70
2019-03-23T17:59:45.922Z,3.50
2019-03-23T18:02:16.200Z,2.73
2019-03-23T18:04:46.114Z,2.60
2019-03-23T18:07:16.114Z,3.00
2019-03-23T18:09:45.997Z,3.67
2019-03-23T18:12:15.926Z,2.73
2019-03-23T18:14:45.933Z,3.00
2019-03-23T18:17:15.878Z,2.50
2019-03-23T18:19:45.806Z,3.37
2019-03-23T18:22:18.168Z,3.03
2019-03-23T18:24:48.221Z,2.97
2019-03-23T18:27:18.373Z,2.97
2019-03-23T18:29:48.179Z,3.40
2019-03-23T18:32:18.028Z,3.27
2019-03-23T18:34:47.893Z,3.63
2019-03-23T18:37:17.751Z,3.03
2019-03-23T18:39:47.575Z,4.57
2019-03-23T18:42:17.714Z,3.33
2019-03-23T18:44:47.627Z,3.70
2019-03-23T18:47:17.431Z,4.60
2019-03-23T18:49:47.334Z,3.60
2019-03-23T18:52:17.347Z,3.90
2019-03-23T18:54:47.291Z,3.50
2019-03-23T18:57:17.195Z,3.97
2019-03-23T18:59:47.178Z,4.13
2019-03-23T19:02:17.070Z,3.83
2019-03-23T19:04:46.955Z,3.93
2019-03-23T19:07:17.082Z,3.73
2019-03-23T19:09:46.922Z,3.50
2019-03-23T19:12:17.100Z,3.37
2019-03-23T19:14:46.972Z,3.00
2019-03-23T19:17:17.065Z,4.33
2019-03-23T19:19:48.587Z,3.20
2019-03-23T19:22:18.674Z,3.50
2019-03-23T19:24:48.663Z,3.33
2019-03-23T19:27:18.462Z,3.17
2019-03-23T19:29:48.478Z,3.37
2019-03-23T19:32:18.297Z,2.93
2019-03-23T19:34:48.241Z,4.00
2019-03-23T19:37:18.286Z,3.77
2019-03-23T19:39:48.034Z,3.47
2019-03-23T19:42:20.559Z,3.83
2019-03-23T19:44:50.754Z,3.63
2019-03-23T19:47:23.576Z,2.97
2019-03-23T19:49:53.414Z,2.83
2019-03-23T19:52:23.539Z,3.60
2019-03-23T19:54:53.640Z,2.80
2019-03-23T19:57:23.457Z,3.40
2019-03-23T19:59:53.530Z,3.53
2019-03-23T20:02:26.962Z,3.17
2019-03-23T20:04:57.028Z,3.20
2019-03-23T20:07:32.981Z,2.80
2019-03-23T20:09:58.666Z,3.50
2019-03-23T20:12:28.548Z,3.37
2019-03-23T20:14:58.358Z,3.97
2019-03-23T20:17:28.201Z,3.13
2019-03-23T20:19:58.197Z,3.70
2019-03-23T20:22:28.044Z,3.70
2019-03-23T20:24:57.812Z,3.73
2019-03-23T20:27:27.845Z,4.17
2019-03-23T20:29:57.686Z,4.60
2019-03-23T20:32:27.497Z,4.70
2019-03-23T20:34:57.208Z,4.20
2019-03-23T20:37:27.179Z,3.50
2019-03-23T20:39:56.906Z,4.23
2019-03-23T20:42:27.665Z,3.77
2019-03-23T20:44:57.614Z,4.37
2019-03-23T20:47:27.498Z,4.70
2019-03-23T20:49:57.377Z,4.43
2019-03-23T20:52:27.215Z,4.63
2019-03-23T20:54:57.082Z,4.20
2019-03-23T20:57:37.017Z,3.60
2019-03-23T20:59:58.840Z,3.30
2019-03-23T21:02:28.675Z,3.00
2019-03-23T21:04:58.574Z,3.47
2019-03-23T21:07:28.865Z,3.00
2019-03-23T21:09:58.759Z,3.57
2019-03-23T21:12:28.743Z,3.67
2019-03-23T21:14:58.624Z,3.30
2019-03-23T21:17:28.860Z,3.30
2019-03-23T21:19:58.911Z,3.33
2019-03-23T21:22:28.807Z,3.70
2019-03-23T21:24:58.528Z,3.40
2019-03-23T21:27:28.310Z,3.80
2019-03-23T21:29:58.213Z,3.93
2019-03-23T21:32:27.990Z,3.37
2019-03-23T21:34:57.743Z,4.17
2019-03-23T21:37:27.915Z,3.57
2019-03-23T21:39:58.032Z,3.87
2019-03-23T21:42:27.903Z,4.23
2019-03-23T21:44:57.740Z,4.43
2019-03-23T21:47:27.672Z,3.37
2019-03-23T21:49:57.600Z,4.23
2019-03-23T21:52:27.377Z,4.40
2019-03-23T21:54:57.431Z,4.10
2019-03-23T21:57:27.225Z,3.57
2019-03-23T21:59:57.194Z,4.20
2019-03-23T22:02:27.030Z,3.50
2019-03-23T22:04:56.868Z,3.47
2019-03-23T22:07:26.731Z,4.27
2019-03-23T22:09:57.604Z,3.37
2019-03-23T22:12:27.645Z,3.80
2019-03-23T22:14:57.502Z,4.17
2019-03-23T22:17:27.335Z,3.40
2019-03-23T22:19:57.168Z,4.00
2019-03-23T22:22:27.111Z,3.87
2019-03-23T22:24:56.997Z,4.33
2019-03-23T22:27:26.944Z,6.20
2019-03-23T22:29:57.002Z,6.90
2019-03-23T22:32:26.965Z,4.10
2019-03-23T22:34:56.781Z,3.83
2019-03-23T22:37:26.986Z,4.53
2019-03-23T22:39:56.914Z,5.60
2019-03-23T22:42:26.746Z,5.30
2019-03-23T22:44:57.286Z,4.50
2019-03-23T22:47:28.284Z,5.23
2019-03-23T22:49:58.102Z,6.90
2019-03-23T22:52:28.075Z,5.60
2019-03-23T22:54:57.902Z,5.33
2019-03-23T22:57:27.725Z,4.03
2019-03-23T22:59:57.756Z,4.00
2019-03-23T23:02:27.538Z,3.77
2019-03-23T23:04:57.610Z,3.67
2019-03-23T23:07:27.430Z,4.30
2019-03-23T23:09:57.293Z,3.83
2019-03-23T23:12:27.401Z,4.23
2019-03-23T23:15:04.471Z,4.57
2019-03-23T23:17:29.091Z,4.27
2019-03-23T23:19:58.877Z,4.47
2019-03-23T23:22:28.697Z,4.20
2019-03-23T23:24:58.698Z,4.23
2019-03-23T23:27:28.386Z,4.93
2019-03-23T23:29:58.203Z,4.83
2019-03-23T23:32:27.976Z,4.43
2019-03-23T23:34:57.782Z,4.30
2019-03-23T23:37:27.598Z,5.30
2019-03-23T23:39:57.394Z,4.23
2019-03-23T23:42:27.366Z,4.07
2019-03-23T23:44:58.197Z,4.33
2019-03-23T23:47:28.009Z,4.40
2019-03-23T23:49:57.974Z,3.80
2019-03-23T23:52:27.938Z,4.47
2019-03-23T23:54:57.651Z,4.40
2019-03-23T23:57:27.422Z,4.30
2019-03-23T23:59:57.330Z,5.73
